createdAt,value
2018-08-03T00:01:11.064Z,17.10
2018-08-03T00:03:39.170Z,17.57
2018-08-03T00:06:07.259Z,17.90
2018-08-03T00:08:35.365Z,19.57
2018-08-03T00:11:03.494Z,18.30
2018-08-03T00:13:31.609Z,18.30
2018-08-03T00:15:59.714Z,17.73
2018-08-03T00:18:27.869Z,18.27
2018-08-03T00:20:56.029Z,19.33
2018-08-03T00:23:24.149Z,18.33
2018-08-03T00:25:52.292Z,18.67
2018-08-03T00:28:20.372Z,17.43
2018-08-03T00:30:48.468Z,16.93
2018-08-03T00:33:16.664Z,18.13
2018-08-03T00:35:44.789Z,18.30
2018-08-03T00:38:12.950Z,16.90
2018-08-03T00:40:41.076Z,19.53
2018-08-03T00:43:09.212Z,20.17
2018-08-03T00:45:37.322Z,18.77
2018-08-03T00:48:05.455Z,16.93
2018-08-03T00:50:33.585Z,18.60
2018-08-03T00:53:01.735Z,18.70
2018-08-03T00:55:29.840Z,20.80
2018-08-03T00:57:57.918Z,18.53
2018-08-03T01:00:26.024Z,20.03
2018-08-03T01:02:54.095Z,22.33
2018-08-03T01:05:22.240Z,22.63
2018-08-03T01:07:50.365Z,24.50
2018-08-03T01:10:18.448Z,27.40
2018-08-03T01:12:47.650Z,25.57
2018-08-03T01:15:15.882Z,24.23
2018-08-03T01:17:44.053Z,23.63
2018-08-03T01:20:12.197Z,23.37
2018-08-03T01:22:40.314Z,21.73
2018-08-03T01:25:08.458Z,20.53
2018-08-03T01:27:36.591Z,20.80
2018-08-03T01:30:05.402Z,20.60
2018-08-03T01:32:33.545Z,21.87
2018-08-03T01:35:01.633Z,21.83
2018-08-03T01:37:29.758Z,22.40
2018-08-03T01:39:57.886Z,20.47
2018-08-03T01:42:25.973Z,20.73
2018-08-03T01:44:54.116Z,23.03
2018-08-03T01:47:22.231Z,20.80
2018-08-03T01:49:50.323Z,20.60
2018-08-03T01:52:18.445Z,21.73
2018-08-03T01:54:46.526Z,24.80
2018-08-03T01:57:14.630Z,24.47
2018-08-03T01:59:42.734Z,23.10
2018-08-03T02:02:10.915Z,21.63
2018-08-03T02:04:39.048Z,22.30
2018-08-03T02:07:07.209Z,22.77
2018-08-03T02:09:35.354Z,23.00
2018-08-03T02:12:03.472Z,22.90
2018-08-03T03:36:29.396Z,24.23
2018-08-03T03:38:57.582Z,26.20
2018-08-03T03:41:25.650Z,27.80
2018-08-03T03:43:53.806Z,24.27
2018-08-03T03:46:21.924Z,24.33
2018-08-03T03:48:50.046Z,22.43
2018-08-03T03:51:18.200Z,24.90
2018-08-03T03:53:46.262Z,25.20
2018-08-03T03:56:14.332Z,22.67
2018-08-03T03:58:42.452Z,22.37
2018-08-03T04:01:10.380Z,24.30
2018-08-03T04:03:38.572Z,20.43
2018-08-03T04:06:07.136Z,26.50
2018-08-03T04:08:35.076Z,23.20
2018-08-03T04:11:03.228Z,23.77
2018-08-03T04:13:31.380Z,20.50
2018-08-03T04:15:59.524Z,23.80
2018-08-03T04:18:27.641Z,23.97
2018-08-03T04:20:59.358Z,23.97
2018-08-03T04:23:27.464Z,26.77
2018-08-03T04:25:55.559Z,26.40
2018-08-03T04:28:23.654Z,26.60
2018-08-03T04:30:53.083Z,24.30
2018-08-03T04:33:21.256Z,28.20
2018-08-03T04:35:49.383Z,26.43
2018-08-03T04:38:17.637Z,23.43
2018-08-03T04:40:45.746Z,26.23
2018-08-03T04:43:13.898Z,24.50
2018-08-03T04:45:41.967Z,23.73
2018-08-03T04:48:10.044Z,24.57
2018-08-03T04:50:40.540Z,23.87
2018-08-03T04:53:08.722Z,21.80
2018-08-03T04:55:36.901Z,22.27
2018-08-03T04:58:05.099Z,22.43
2018-08-03T05:00:33.779Z,22.83
2018-08-03T05:03:01.861Z,24.60
2018-08-03T05:05:29.996Z,23.87
2018-08-03T05:07:58.130Z,24.10
2018-08-03T05:10:26.250Z,23.63
2018-08-03T05:12:54.371Z,21.20
2018-08-03T05:15:22.505Z,22.70
2018-08-03T05:17:50.566Z,23.20
2018-08-03T05:20:18.684Z,18.80
2018-08-03T05:22:46.763Z,20.40
2018-08-03T05:25:14.915Z,21.27
2018-08-03T05:27:43.043Z,22.37
2018-08-03T05:30:11.256Z,21.37
2018-08-03T05:32:39.359Z,20.57
2018-08-03T05:35:08.433Z,21.37
2018-08-03T05:37:36.889Z,19.53
2018-08-03T05:40:05.445Z,20.87
2018-08-03T05:42:33.622Z,19.20
2018-08-03T05:45:01.709Z,19.77
2018-08-03T05:47:29.829Z,19.77
2018-08-03T05:49:57.916Z,19.93
2018-08-03T05:52:26.098Z,19.00
2018-08-03T05:54:54.201Z,17.77
2018-08-03T05:57:22.302Z,20.53
2018-08-03T05:59:50.552Z,21.30
2018-08-03T06:02:18.692Z,21.53
2018-08-03T06:04:46.853Z,20.53
2018-08-03T06:07:14.997Z,18.27
2018-08-03T06:09:43.149Z,20.10
2018-08-03T06:12:11.236Z,21.90
2018-08-03T06:14:39.320Z,19.50
2018-08-03T06:17:07.428Z,20.20
2018-08-03T06:19:35.528Z,18.30
2018-08-03T06:22:03.615Z,20.20
2018-08-03T06:24:32.446Z,19.90
2018-08-03T06:27:00.635Z,20.30
2018-08-03T06:29:28.993Z,21.13
2018-08-03T06:31:57.166Z,18.80
2018-08-03T06:34:25.420Z,19.43
2018-08-03T06:36:53.603Z,21.40
2018-08-03T06:39:21.756Z,20.03
2018-08-03T06:41:49.859Z,19.07
2018-08-03T06:44:17.955Z,19.20
2018-08-03T06:46:46.148Z,18.63
2018-08-03T06:49:14.453Z,19.70
2018-08-03T06:51:42.768Z,20.53
2018-08-03T06:54:11.028Z,18.57
2018-08-03T06:56:39.188Z,18.03
2018-08-03T06:59:07.428Z,19.60
2018-08-03T07:01:35.582Z,19.93
2018-08-03T07:04:03.724Z,17.07
2018-08-03T07:06:31.904Z,20.10
2018-08-03T07:09:00.010Z,18.43
2018-08-03T07:11:28.153Z,16.20
2018-08-03T07:13:56.307Z,15.80
2018-08-03T07:16:24.468Z,16.73
2018-08-03T07:18:52.645Z,17.20
2018-08-03T07:21:24.646Z,17.83
2018-08-03T07:23:52.833Z,17.00
2018-08-03T07:26:20.895Z,17.97
2018-08-03T07:28:49.322Z,16.83
2018-08-03T07:31:17.432Z,18.00
2018-08-03T07:33:45.551Z,18.50
2018-08-03T07:36:13.668Z,17.33
2018-08-03T07:38:41.766Z,17.37
2018-08-03T07:41:09.848Z,15.57
2018-08-03T07:43:37.999Z,17.63
2018-08-03T07:46:06.207Z,17.83
2018-08-03T07:48:34.305Z,18.60
2018-08-03T07:51:02.665Z,16.60
2018-08-03T07:53:31.354Z,18.23
2018-08-03T07:55:59.556Z,15.27
2018-08-03T07:58:27.708Z,18.17
2018-08-03T08:00:55.866Z,16.23
2018-08-03T08:03:24.038Z,17.47
2018-08-03T08:05:52.172Z,17.17
2018-08-03T08:08:20.385Z,18.27
2018-08-03T08:10:48.507Z,17.40
2018-08-03T08:13:16.713Z,15.90
2018-08-03T08:15:44.793Z,15.50
2018-08-03T08:18:13.798Z,16.00
2018-08-03T08:20:42.018Z,16.07
2018-08-03T08:23:10.175Z,15.87
2018-08-03T08:25:38.320Z,16.27
2018-08-03T08:28:06.439Z,16.47
2018-08-03T08:30:34.561Z,17.27
2018-08-03T08:33:02.721Z,16.80
2018-08-03T08:35:30.862Z,15.43
2018-08-03T08:37:58.926Z,14.67
2018-08-03T08:40:27.085Z,16.50
2018-08-03T08:42:55.264Z,18.10
2018-08-03T08:45:23.403Z,18.07
2018-08-03T08:47:51.608Z,16.57
2018-08-03T08:50:19.793Z,16.90
2018-08-03T08:52:47.855Z,16.27
2018-08-03T08:55:15.975Z,17.67
2018-08-03T08:57:44.109Z,18.40
2018-08-03T09:00:12.322Z,16.10
2018-08-03T09:02:40.391Z,16.20
2018-08-03T09:05:08.493Z,15.90
2018-08-03T09:07:36.887Z,14.40
2018-08-03T09:10:05.196Z,18.60
2018-08-03T09:12:33.263Z,15.97
2018-08-03T09:15:01.360Z,15.93
2018-08-03T09:17:29.452Z,18.23
2018-08-03T09:19:57.584Z,18.83
2018-08-03T09:22:25.676Z,15.27
2018-08-03T09:24:53.810Z,17.43
2018-08-03T09:27:21.922Z,17.97
2018-08-03T09:29:50.064Z,18.03
2018-08-03T09:32:18.167Z,16.80
2018-08-03T09:34:46.250Z,17.00
2018-08-03T09:37:14.385Z,18.20
2018-08-03T09:39:42.535Z,17.60
2018-08-03T09:42:10.720Z,19.93
2018-08-03T09:44:38.844Z,16.97
2018-08-03T09:47:07.044Z,17.87
2018-08-03T09:49:35.165Z,16.30
2018-08-03T09:52:03.300Z,16.77
2018-08-03T09:54:31.481Z,16.67
2018-08-03T09:56:59.589Z,16.33
2018-08-03T09:59:27.777Z,17.40
2018-08-03T10:01:55.913Z,18.00
2018-08-03T10:04:24.130Z,17.50
2018-08-03T10:06:52.279Z,18.67
2018-08-03T10:09:20.376Z,18.33
2018-08-03T10:11:48.509Z,17.53
2018-08-03T10:14:16.641Z,18.30
2018-08-03T10:16:44.740Z,17.10
2018-08-03T10:19:12.823Z,16.10
2018-08-03T10:21:41.049Z,16.43
2018-08-03T10:24:09.568Z,18.40
2018-08-03T10:26:37.981Z,18.37
2018-08-03T10:29:06.132Z,16.97
2018-08-03T10:31:34.245Z,19.03
2018-08-03T10:34:02.409Z,18.47
2018-08-03T10:36:30.521Z,16.00
2018-08-03T10:38:58.776Z,14.60
2018-08-03T10:41:26.866Z,15.30
2018-08-03T10:43:55.124Z,15.23
2018-08-03T10:46:23.339Z,17.20
2018-08-03T10:48:51.465Z,17.23
2018-08-03T10:51:19.678Z,17.60
2018-08-03T10:53:47.854Z,16.20
2018-08-03T10:56:15.979Z,14.53
2018-08-03T10:58:44.060Z,16.27
2018-08-03T11:01:12.289Z,16.47
2018-08-03T11:03:40.471Z,15.50
2018-08-03T11:06:08.667Z,14.93
2018-08-03T11:08:36.969Z,16.50
2018-08-03T11:11:05.090Z,15.77
2018-08-03T11:13:33.228Z,16.20
2018-08-03T11:16:01.342Z,16.37
2018-08-03T11:18:29.468Z,16.67
2018-08-03T11:20:57.565Z,16.70
2018-08-03T11:23:25.757Z,14.50
2018-08-03T11:25:54.026Z,15.60
2018-08-03T11:28:22.206Z,14.40
2018-08-03T11:30:50.674Z,14.73
2018-08-03T11:33:18.881Z,15.70
2018-08-03T11:35:46.973Z,15.80
2018-08-03T11:38:15.189Z,14.00
2018-08-03T11:40:43.303Z,14.43
2018-08-03T11:43:11.437Z,14.03
2018-08-03T11:45:39.607Z,15.30
2018-08-03T11:48:07.708Z,15.30
2018-08-03T11:50:35.861Z,15.70
2018-08-03T11:53:04.020Z,16.20
2018-08-03T11:55:32.151Z,15.57
2018-08-03T11:58:00.317Z,15.53
2018-08-03T12:00:28.543Z,15.60
2018-08-03T12:02:56.814Z,13.70
2018-08-03T12:05:25.066Z,14.53
2018-08-03T12:07:53.188Z,15.23
2018-08-03T12:10:21.309Z,14.93
2018-08-03T12:12:49.440Z,16.10
2018-08-03T12:15:17.874Z,13.90
2018-08-03T12:17:45.988Z,13.83
2018-08-03T12:20:14.155Z,15.70
2018-08-03T12:22:42.285Z,14.37
2018-08-03T12:25:10.429Z,14.00
2018-08-03T12:27:38.534Z,14.53
2018-08-03T12:30:06.708Z,14.10
2018-08-03T12:32:34.922Z,14.53
2018-08-03T12:35:03.056Z,15.63
2018-08-03T12:37:31.148Z,14.53
2018-08-03T12:39:59.272Z,13.57
2018-08-03T12:42:27.399Z,15.10
2018-08-03T12:44:55.467Z,14.80
2018-08-03T12:47:23.613Z,15.03
2018-08-03T12:49:51.751Z,13.90
2018-08-03T12:52:19.868Z,14.57
2018-08-03T12:54:47.974Z,15.07
2018-08-03T12:57:16.110Z,14.60
2018-08-03T12:59:44.341Z,15.30
2018-08-03T13:02:12.456Z,14.63
2018-08-03T13:04:40.605Z,13.83
2018-08-03T13:07:08.796Z,13.90
2018-08-03T13:09:36.904Z,13.07
2018-08-03T13:12:05.029Z,14.10
2018-08-03T13:14:33.250Z,14.70
2018-08-03T13:17:01.416Z,14.90
2018-08-03T13:19:29.528Z,13.97
2018-08-03T13:21:57.690Z,14.07
2018-08-03T13:24:25.810Z,14.30
2018-08-03T13:26:53.905Z,13.33
2018-08-03T13:29:22.008Z,14.57
2018-08-03T13:31:50.129Z,13.33
2018-08-03T13:34:18.244Z,14.07
2018-08-03T13:36:46.487Z,12.57
2018-08-03T13:39:14.655Z,14.33
2018-08-03T13:41:42.756Z,13.80
2018-08-03T13:44:10.936Z,14.37
2018-08-03T13:46:39.124Z,13.23
2018-08-03T13:49:07.190Z,13.83
2018-08-03T13:51:35.340Z,13.00
2018-08-03T13:54:04.329Z,14.10
2018-08-03T13:56:32.479Z,12.50
2018-08-03T13:59:00.585Z,14.00
2018-08-03T14:02:42.253Z,15.03
2018-08-03T14:05:10.500Z,14.83
2018-08-03T14:07:38.709Z,13.53
2018-08-03T14:10:07.555Z,13.60
2018-08-03T14:12:35.684Z,14.37
2018-08-03T14:15:03.847Z,14.00
2018-08-03T14:17:31.945Z,14.20
2018-08-03T14:20:00.001Z,14.00
2018-08-03T14:22:28.145Z,13.67
2018-08-03T14:24:56.293Z,14.43
2018-08-03T14:27:24.403Z,14.33
2018-08-03T14:29:52.549Z,14.33
2018-08-03T14:32:20.668Z,13.43
2018-08-03T14:34:48.894Z,13.47
2018-08-03T14:37:17.071Z,13.37
2018-08-03T14:39:45.493Z,13.47
2018-08-03T14:42:13.676Z,13.37
2018-08-03T14:44:41.852Z,13.60
2018-08-03T14:47:10.077Z,14.27
2018-08-03T14:49:38.284Z,14.60
2018-08-03T14:52:06.230Z,13.50
2018-08-03T14:54:34.362Z,16.00
2018-08-03T14:57:02.557Z,13.53
2018-08-03T14:59:30.717Z,15.50
2018-08-03T15:01:58.888Z,14.20
2018-08-03T15:04:27.073Z,13.30
2018-08-03T15:06:55.245Z,13.67
2018-08-03T15:09:23.357Z,13.57
2018-08-03T15:11:51.815Z,15.37
2018-08-03T15:14:19.942Z,14.50
2018-08-03T15:16:48.093Z,15.47
2018-08-03T15:19:16.258Z,15.07
2018-08-03T15:21:44.380Z,13.77
2018-08-03T15:24:12.642Z,14.87
2018-08-03T15:26:40.830Z,15.37
2018-08-03T15:29:08.956Z,14.57
2018-08-03T15:31:37.077Z,14.23
2018-08-03T15:34:05.294Z,14.50
2018-08-03T15:36:33.444Z,14.40
2018-08-03T15:39:01.601Z,13.90
2018-08-03T15:41:29.723Z,14.37
2018-08-03T15:43:57.836Z,13.37
2018-08-03T15:46:25.957Z,13.43
2018-08-03T15:48:54.136Z,13.53
2018-08-03T15:51:22.294Z,13.63
2018-08-03T15:53:50.731Z,13.17
2018-08-03T15:56:18.913Z,14.00
2018-08-03T15:58:47.108Z,14.87
2018-08-03T16:01:15.302Z,16.10
2018-08-03T16:03:43.558Z,15.00
2018-08-03T16:06:11.725Z,15.87
2018-08-03T16:08:39.866Z,14.10
2018-08-03T16:11:07.982Z,15.87
2018-08-03T16:13:36.170Z,13.20
2018-08-03T16:16:04.364Z,16.00
2018-08-03T16:18:32.525Z,14.80
2018-08-03T16:21:00.682Z,14.63
2018-08-03T16:23:28.897Z,16.13
2018-08-03T16:25:56.859Z,15.20
2018-08-03T16:28:25.063Z,13.87
2018-08-03T16:30:53.245Z,14.70
2018-08-03T16:33:21.318Z,14.53
2018-08-03T16:35:49.454Z,14.77
2018-08-03T16:38:17.558Z,13.37
2018-08-03T16:40:45.683Z,14.63
2018-08-03T16:43:13.776Z,12.80
2018-08-03T16:45:41.858Z,15.13
2018-08-03T16:48:09.956Z,14.23
2018-08-03T16:50:38.025Z,14.20
2018-08-03T16:53:06.162Z,15.27
2018-08-03T16:55:34.374Z,12.70
2018-08-03T16:58:02.508Z,15.40
2018-08-03T17:00:30.614Z,14.43
2018-08-03T17:02:58.793Z,14.40
2018-08-03T17:05:26.880Z,14.70
2018-08-03T17:07:55.033Z,14.00
2018-08-03T17:10:23.253Z,14.83
2018-08-03T17:12:51.360Z,14.43
2018-08-03T17:15:19.460Z,14.00
2018-08-03T17:17:47.596Z,14.03
2018-08-03T17:20:15.770Z,14.33
2018-08-03T17:22:43.864Z,13.67
2018-08-03T17:25:12.060Z,13.70
2018-08-03T17:27:40.221Z,13.43
2018-08-03T17:30:08.303Z,13.80
2018-08-03T17:32:36.449Z,13.30
2018-08-03T17:35:04.626Z,13.27
2018-08-03T17:37:32.958Z,14.67
2018-08-03T17:40:01.065Z,14.00
2018-08-03T17:42:29.219Z,15.00
2018-08-03T17:44:57.327Z,13.67
2018-08-03T17:47:25.444Z,14.13
2018-08-03T17:49:53.569Z,14.40
2018-08-03T17:52:21.714Z,13.73
2018-08-03T17:54:49.948Z,14.37
2018-08-03T17:57:18.041Z,14.97
2018-08-03T17:59:46.177Z,14.57
2018-08-03T18:02:14.332Z,14.07
2018-08-03T18:04:42.434Z,15.00
2018-08-03T18:07:11.560Z,13.67
2018-08-03T18:09:39.688Z,14.97
2018-08-03T18:12:07.957Z,13.97
2018-08-03T18:14:36.149Z,13.77
2018-08-03T18:17:04.533Z,14.33
2018-08-03T18:19:32.716Z,14.13
2018-08-03T18:22:00.776Z,13.60
2018-08-03T18:24:29.006Z,14.93
2018-08-03T18:26:57.227Z,14.67
2018-08-03T18:29:25.517Z,15.50
2018-08-03T18:31:53.730Z,15.30
2018-08-03T18:34:21.911Z,13.87
2018-08-03T18:36:50.212Z,13.13
2018-08-03T18:39:18.347Z,13.53
2018-08-03T18:41:46.465Z,13.30
2018-08-03T18:44:14.609Z,14.87
2018-08-03T18:46:42.810Z,14.00
2018-08-03T18:49:10.898Z,13.57
2018-08-03T18:51:39.080Z,14.70
2018-08-03T18:54:07.216Z,15.13
2018-08-03T18:56:35.394Z,14.10
2018-08-03T18:59:03.320Z,13.87
2018-08-03T19:01:31.445Z,15.10
2018-08-03T19:03:59.601Z,14.13
2018-08-03T19:06:27.728Z,14.73
2018-08-03T19:08:55.809Z,16.57
2018-08-03T19:11:24.044Z,13.53
2018-08-03T19:13:52.200Z,14.97
2018-08-03T19:16:20.350Z,16.10
2018-08-03T19:18:48.485Z,13.60
2018-08-03T19:21:16.572Z,15.73
2018-08-03T19:23:44.705Z,15.30
2018-08-03T19:26:12.819Z,14.67
2018-08-03T19:28:41.144Z,15.67
2018-08-03T19:31:09.312Z,14.07
2018-08-03T19:33:37.412Z,14.77
2018-08-03T19:36:05.679Z,14.80
2018-08-03T19:38:33.756Z,13.33
2018-08-03T19:41:01.812Z,14.80
2018-08-03T19:43:29.950Z,14.80
2018-08-03T19:45:58.125Z,14.50
2018-08-03T19:48:26.233Z,13.87
2018-08-03T19:50:54.428Z,15.43
2018-08-03T19:53:22.483Z,16.63
2018-08-03T19:55:50.626Z,15.97
2018-08-03T19:58:18.833Z,15.13
2018-08-03T20:00:46.950Z,15.40
2018-08-03T20:03:15.041Z,16.00
2018-08-03T20:05:43.173Z,15.53
2018-08-03T20:08:11.333Z,15.03
2018-08-03T20:10:39.418Z,14.60
2018-08-03T20:13:07.582Z,16.23
2018-08-03T20:15:35.779Z,14.97
2018-08-03T20:18:03.965Z,15.20
2018-08-03T20:20:32.105Z,15.17
2018-08-03T20:23:00.300Z,14.10
2018-08-03T20:25:28.396Z,15.37
2018-08-03T20:27:56.459Z,15.10
2018-08-03T20:30:24.608Z,15.20
2018-08-03T20:32:52.744Z,14.03
2018-08-03T20:35:20.827Z,15.87
2018-08-03T20:37:48.940Z,15.80
2018-08-03T20:40:17.016Z,14.90
2018-08-03T20:42:45.149Z,15.50
2018-08-03T20:45:13.310Z,15.47
2018-08-03T20:47:41.436Z,14.20
2018-08-03T20:50:09.548Z,13.40
2018-08-03T20:52:37.749Z,13.43
2018-08-03T20:55:05.897Z,11.50
2018-08-03T20:57:34.005Z,11.87
2018-08-03T21:00:02.200Z,11.60
2018-08-03T21:02:30.314Z,10.90
2018-08-03T21:04:58.194Z,12.37
2018-08-03T21:07:26.356Z,13.23
2018-08-03T21:09:54.497Z,12.80
2018-08-03T21:12:22.592Z,11.73
2018-08-03T21:14:50.722Z,11.70
2018-08-03T21:17:18.795Z,12.33
2018-08-03T21:19:46.946Z,10.93
2018-08-03T21:22:15.052Z,12.20
2018-08-03T21:24:43.196Z,12.03
2018-08-03T21:27:12.971Z,12.93
2018-08-03T21:29:41.101Z,12.87
2018-08-03T21:32:09.240Z,12.07
2018-08-03T21:34:37.370Z,13.40
2018-08-03T21:37:05.458Z,12.57
2018-08-03T21:39:33.570Z,10.80
2018-08-03T21:42:01.689Z,10.83
2018-08-03T21:44:29.829Z,11.77
2018-08-03T21:46:57.930Z,10.57
2018-08-03T21:49:26.024Z,11.20
2018-08-03T21:51:54.100Z,11.37
2018-08-03T21:54:22.279Z,11.23
2018-08-03T21:56:50.415Z,12.20
2018-08-03T21:59:18.571Z,11.17
2018-08-03T22:01:46.692Z,11.13
2018-08-03T22:04:14.795Z,11.47
2018-08-03T22:06:42.876Z,10.33
2018-08-03T22:09:11.008Z,9.20
2018-08-03T22:11:39.163Z,10.00
2018-08-03T22:14:07.633Z,9.60
2018-08-03T22:16:35.735Z,9.47
2018-08-03T22:19:03.844Z,9.93
2018-08-03T22:21:32.002Z,9.30
2018-08-03T22:24:00.043Z,9.07
2018-08-03T22:26:28.164Z,9.20
2018-08-03T22:28:56.284Z,9.53
2018-08-03T22:31:24.455Z,10.40
2018-08-03T22:33:52.600Z,8.67
2018-08-03T22:36:20.745Z,8.80
2018-08-03T22:38:48.952Z,8.07
2018-08-03T22:41:17.035Z,8.00
2018-08-03T22:43:45.121Z,7.93
2018-08-03T22:46:13.208Z,7.23
2018-08-03T22:48:41.322Z,8.77
2018-08-03T22:51:09.431Z,8.67
2018-08-03T22:53:37.507Z,8.00
2018-08-03T22:56:05.981Z,8.70
2018-08-03T22:58:34.296Z,7.30
2018-08-03T23:01:02.454Z,7.73
2018-08-03T23:03:30.572Z,7.10
2018-08-03T23:05:58.641Z,8.40
2018-08-03T23:08:26.698Z,7.43
2018-08-03T23:10:54.775Z,7.90
2018-08-03T23:13:22.865Z,7.23
2018-08-03T23:15:50.765Z,6.73
2018-08-03T23:18:18.891Z,7.47
2018-08-03T23:20:46.979Z,7.13
2018-08-03T23:23:15.134Z,7.23
2018-08-03T23:25:43.266Z,6.50
2018-08-03T23:28:11.363Z,6.40
2018-08-03T23:30:39.557Z,6.57
2018-08-03T23:33:07.652Z,6.90
2018-08-03T23:35:35.758Z,6.63
2018-08-03T23:38:03.915Z,7.07
2018-08-03T23:40:32.016Z,7.03
2018-08-03T23:43:00.129Z,7.23
2018-08-03T23:45:28.244Z,7.00
2018-08-03T23:47:56.357Z,6.63
2018-08-03T23:50:24.423Z,6.77
2018-08-03T23:52:52.517Z,7.13
2018-08-03T23:55:20.661Z,7.40
2018-08-03T23:57:48.773Z,7.80
